Waynesville, GA

8:41 AM EST on February 06, 2016 (GMT -0500)
Timber Landing | | Change Station
CLOSE
Current Station
Personal Weather Station
Location: Brunswick, GA
Elevation: 43 ft
Nearby Weather Stations

Elev 43 ft 31.19 °N, 81.61 °W | Updated 7 seconds ago

Overcast
Overcast
47.1 °F
Feels Like 45 °F
N
5.4
Wind Variable Wind from West
Gusts 8.3 mph

Today
High -- | Low -- °F
--% Chance of Precip.
Yesterday
High -- | Low -- °F
Precip. -- in
Pressure 30.32 in
Visibility 10.0 miles
Clouds Mostly Cloudy 8000 ft
Windchill 45 °F
Dew Point 34 °F
Humidity 59%
Rainfall 0.00 in
Snow Depth Not available.
7:16 AM 6:06 PM
Waning Crescent, 5% visible
METAR KBQK 061315Z AUTO 35004KT 10SM BKN080 07/00 A3032 RMK AO2
Pressure 30.32 in
Visibility 10.0 miles
Clouds Mostly Cloudy 8000 ft
Windchill 45 °F
Dew Point 34 °F
Humidity 59%
Rainfall 0.00 in
Snow Depth Not available.
7:16 AM 6:06 PM
Waning Crescent, 5% visible
METAR KBQK 061315Z AUTO 35004KT 10SM BKN080 07/00 A3032 RMK AO2

10-Day Weather Forecast

Almanac

Astronomy

Feb. 06, 2016 Rise Set
Actual Time
Civil Twilight
Nautical Twilight
Astronomical Twilight
Moon
Length of Visible Light
Length of Day
Tomorrow will be .
, % of the Moon is Illuminated

Today's Extremes

State Highs State Lows

Community

WunderPhotos

Upload Photos

1,890,971 photos uploaded!

WunderBlog® & News

Nearby

Air Quality

  Air Quality AQ Index Pollutant
Not available.

Snow Depth

Station Depth Elevation

Earthquake Activity

City Distance Mag. Time & Date
Minimum magnitude displayed is 2.5.

Coastal Water Temperatures

Place Temperature

Stations

Nearby Weather Stations

Station Location Temp. Windchill Dew Point Humidity Wind Precip. Elev Updated Type
                   

Watches & Warnings

There are currently no watches in effect.